createdAt,value
2018-11-25T00:00:11.696Z,100721.35
2018-11-25T00:02:40.412Z,100716.35
2018-11-25T00:05:09.626Z,100718.94
2018-11-25T00:07:51.473Z,100713.54
2018-11-25T00:10:20.185Z,100712.24
2018-11-25T00:12:48.886Z,100708.81
2018-11-25T00:15:17.884Z,100709.53
2018-11-25T00:17:46.606Z,100710.31
2018-11-25T00:20:15.367Z,100709.43
2018-11-25T00:22:44.282Z,100709.36
2018-11-25T00:25:14.110Z,100708.48
2018-11-25T00:27:42.852Z,100707.19
2018-11-25T00:30:13.552Z,100700.25
2018-11-25T00:32:42.274Z,100703.17
2018-11-25T00:35:12.133Z,100705.83
2018-11-25T00:37:48.044Z,100704.20
2018-11-25T00:40:10.992Z,100699.47
2018-11-25T00:42:40.006Z,100703.34
2018-11-25T00:45:11.193Z,100707.42
2018-11-25T00:47:40.401Z,100698.76
2018-11-25T00:50:11.147Z,100695.90
2018-11-25T00:52:39.837Z,100697.91
2018-11-25T00:55:11.077Z,100699.27
2018-11-25T00:57:39.784Z,100698.83
2018-11-25T01:00:15.419Z,100694.74
2018-11-25T01:02:44.325Z,100695.41
2018-11-25T01:05:13.113Z,100696.44
2018-11-25T01:07:41.927Z,100696.81
2018-11-25T01:10:13.555Z,100702.66
2018-11-25T01:12:42.399Z,100701.36
2018-11-25T01:15:18.146Z,100701.87
2018-11-25T01:17:46.909Z,100704.69
2018-11-25T01:20:20.677Z,100703.45
2018-11-25T01:22:49.403Z,100703.83
2018-11-25T01:25:18.389Z,100699.52
2018-11-25T01:27:47.100Z,100699.45
2018-11-25T01:30:17.082Z,100702.31
2018-11-25T01:32:45.788Z,100703.61
2018-11-25T01:35:14.669Z,100699.16
2018-11-25T01:37:43.616Z,100698.14
2018-11-25T01:40:14.137Z,100705.66
2018-11-25T01:42:43.180Z,100700.45
2018-11-25T01:45:13.871Z,100702.70
2018-11-25T01:47:42.573Z,100701.34
2018-11-25T01:50:13.494Z,100693.94
2018-11-25T01:52:42.493Z,100701.17
2018-11-25T01:55:14.144Z,100699.20
2018-11-25T01:57:43.130Z,100699.33
2018-11-25T02:00:19.604Z,100704.16
2018-11-25T02:02:48.492Z,100702.86
2018-11-25T02:05:17.192Z,100703.03
2018-11-25T02:07:45.894Z,100698.27
2018-11-25T02:10:16.449Z,100695.23
2018-11-25T02:12:45.162Z,100693.50
2018-11-25T02:15:14.761Z,100691.27
2018-11-25T02:17:43.489Z,100688.28
2018-11-25T02:20:18.397Z,100683.59
2018-11-25T02:22:47.123Z,100683.02
2018-11-25T02:25:15.797Z,100676.15
2018-11-25T02:27:44.513Z,100678.36
2018-11-25T02:30:14.850Z,100680.50
2018-11-25T02:32:43.604Z,100679.65
2018-11-25T02:35:12.820Z,100677.41
2018-11-25T02:37:41.797Z,100672.17
2018-11-25T02:40:13.492Z,100663.24
2018-11-25T02:42:42.189Z,100662.02
2018-11-25T02:45:17.494Z,100662.45
2018-11-25T02:47:46.204Z,100665.04
2018-11-25T02:50:31.042Z,100668.23
2018-11-25T02:53:07.887Z,100668.30
2018-11-25T02:55:36.585Z,100672.96
2018-11-25T02:58:05.395Z,100667.08
2018-11-25T03:00:34.092Z,100671.19
2018-11-25T03:03:02.789Z,100672.64
2018-11-25T03:05:31.504Z,100670.40
2018-11-25T03:08:00.206Z,100670.50
2018-11-25T03:10:29.073Z,100676.74
2018-11-25T03:12:57.760Z,100679.26
2018-11-25T03:15:26.496Z,100675.80
2018-11-25T03:17:55.443Z,100677.73
2018-11-25T03:20:24.141Z,100681.67
2018-11-25T03:22:52.851Z,100673.08
2018-11-25T03:25:21.832Z,100683.03
2018-11-25T03:27:50.521Z,100680.89
2018-11-25T03:30:20.338Z,100686.44
2018-11-25T03:32:49.966Z,100686.94
2018-11-25T03:35:18.685Z,100686.66
2018-11-25T03:37:47.384Z,100683.64
2018-11-25T03:40:17.034Z,100691.22
2018-11-25T03:42:45.745Z,100693.23
2018-11-25T03:45:20.278Z,100693.12
2018-11-25T03:47:49.002Z,100692.12
2018-11-25T03:50:17.726Z,100692.94
2018-11-25T03:52:46.412Z,100695.14
2018-11-25T03:55:15.909Z,100703.73
2018-11-25T03:57:44.610Z,100702.55
2018-11-25T04:00:14.392Z,100701.19
2018-11-25T04:02:43.130Z,100706.25
2018-11-25T04:05:13.013Z,100702.95
2018-11-25T04:07:41.699Z,100702.10
2018-11-25T04:10:11.739Z,100701.69
2018-11-25T04:12:40.427Z,100699.86
2018-11-25T04:15:21.182Z,100702.89
2018-11-25T04:17:49.876Z,100695.08
2018-11-25T04:20:20.146Z,100697.87
2018-11-25T04:23:09.068Z,100700.92
2018-11-25T04:25:37.821Z,100701.02
2018-11-25T04:28:06.509Z,100700.86
2018-11-25T04:30:35.205Z,100701.70
2018-11-25T04:33:03.920Z,100705.61
2018-11-25T04:35:32.637Z,100702.55
2018-11-25T04:38:01.380Z,100706.20
2018-11-25T04:40:30.497Z,100698.90
2018-11-25T04:42:59.456Z,100703.49
2018-11-25T04:45:28.149Z,100705.29
2018-11-25T04:47:56.842Z,100705.63
2018-11-25T04:50:25.534Z,100711.14
2018-11-25T04:52:54.229Z,100707.33
2018-11-25T04:55:22.920Z,100708.42
2018-11-25T04:57:52.245Z,100708.33
2018-11-25T05:00:20.994Z,100708.20
2018-11-25T05:02:50.445Z,100706.39
2018-11-25T05:05:19.214Z,100705.45
2018-11-25T05:07:47.936Z,100709.66
2018-11-25T05:10:17.360Z,100705.28
2018-11-25T05:12:46.415Z,100699.54
2018-11-25T05:15:17.765Z,100707.45
2018-11-25T05:17:46.510Z,100701.06
2018-11-25T05:20:15.681Z,100693.48
2018-11-25T05:22:44.375Z,100687.95
2018-11-25T05:25:17.627Z,100686.66
2018-11-25T05:27:46.333Z,100691.48
2018-11-25T05:30:15.825Z,100687.67
2018-11-25T05:32:44.524Z,100689.53
2018-11-25T05:35:14.284Z,100690.35
2018-11-25T05:37:43.010Z,100685.94
2018-11-25T05:40:14.511Z,100687.53
2018-11-25T05:42:43.300Z,100687.87
2018-11-25T05:45:17.769Z,100684.64
2018-11-25T05:47:46.488Z,100690.12
2018-11-25T05:50:15.999Z,100686.66
2018-11-25T05:52:44.683Z,100685.09
2018-11-25T05:55:13.698Z,100695.28
2018-11-25T05:57:42.574Z,100689.74
2018-11-25T06:00:31.855Z,100694.77
2018-11-25T06:03:00.903Z,100693.78
2018-11-25T06:05:29.874Z,100691.13
2018-11-25T06:07:58.576Z,100697.22
2018-11-25T06:10:27.291Z,100692.83
2018-11-25T06:12:55.992Z,100700.14
2018-11-25T06:15:24.669Z,100698.88
2018-11-25T06:17:53.364Z,100698.78
2018-11-25T06:20:22.069Z,100699.02
2018-11-25T06:22:50.757Z,100701.53
2018-11-25T06:25:20.462Z,100703.67
2018-11-25T06:27:49.146Z,100713.08
2018-11-25T06:30:19.506Z,100716.58
2018-11-25T06:32:48.313Z,100716.86
2018-11-25T06:35:18.820Z,100712.58
2018-11-25T06:37:47.535Z,100710.12
2018-11-25T06:40:17.142Z,100710.47
2018-11-25T06:42:45.878Z,100705.95
2018-11-25T06:45:18.915Z,100715.06
2018-11-25T06:47:47.861Z,100716.42
2018-11-25T06:50:16.552Z,100715.29
2018-11-25T06:52:45.258Z,100711.42
2018-11-25T06:55:13.945Z,100712.98
2018-11-25T06:57:42.902Z,100714.27
2018-11-25T07:00:14.721Z,100714.62
2018-11-25T07:02:43.453Z,100712.41
2018-11-25T07:05:12.103Z,100719.31
2018-11-25T07:07:40.787Z,100717.51
2018-11-25T07:10:15.439Z,100717.85
2018-11-25T07:12:44.229Z,100718.30
2018-11-25T07:15:14.041Z,100723.42
2018-11-25T07:17:42.728Z,100719.99
2018-11-25T07:20:12.353Z,100725.53
2018-11-25T07:22:41.385Z,100721.12
2018-11-25T07:25:15.656Z,100723.30
2018-11-25T07:27:44.352Z,100729.24
2018-11-25T07:30:24.667Z,100731.83
2018-11-25T07:32:53.458Z,100734.34
2018-11-25T07:35:23.989Z,100740.36
2018-11-25T07:37:52.686Z,100741.55
2018-11-25T07:40:21.971Z,100743.38
2018-11-25T07:42:50.703Z,100748.95
2018-11-25T07:45:21.233Z,100752.32
2018-11-25T07:47:49.917Z,100752.77
2018-11-25T07:50:18.672Z,100749.80
2018-11-25T07:52:47.976Z,100746.09
2018-11-25T07:55:17.807Z,100744.91
2018-11-25T07:57:47.077Z,100745.41
2018-11-25T08:00:18.541Z,100749.63
2018-11-25T08:02:47.252Z,100743.61
2018-11-25T08:05:20.948Z,100748.27
2018-11-25T08:07:49.830Z,100742.94
2018-11-25T08:10:18.562Z,100736.05
2018-11-25T08:12:47.589Z,100739.47
2018-11-25T08:15:17.449Z,100742.59
2018-11-25T08:17:46.204Z,100742.59
2018-11-25T08:20:15.892Z,100737.06
2018-11-25T08:22:44.596Z,100742.32
2018-11-25T08:25:17.266Z,100737.12
2018-11-25T08:27:45.977Z,100739.64
2018-11-25T08:30:16.373Z,100739.23
2018-11-25T08:32:45.074Z,100736.27
2018-11-25T08:35:14.463Z,100736.14
2018-11-25T08:37:43.169Z,100729.65
2018-11-25T08:40:16.679Z,100726.22
2018-11-25T08:42:45.382Z,100727.95
2018-11-25T08:45:14.530Z,100727.00
2018-11-25T08:47:43.492Z,100719.42
2018-11-25T08:50:15.030Z,100725.44
2018-11-25T08:52:45.520Z,100720.61
2018-11-25T08:55:17.404Z,100717.55
2018-11-25T08:57:46.184Z,100714.53
2018-11-25T09:00:15.955Z,100714.09
2018-11-25T09:02:44.676Z,100711.09
2018-11-25T09:05:14.399Z,100711.44
2018-11-25T09:07:43.240Z,100715.21
2018-11-25T09:10:14.085Z,100712.56
2018-11-25T09:12:43.181Z,100711.06
2018-11-25T09:15:13.393Z,100720.08
2018-11-25T09:17:42.233Z,100726.33
2018-11-25T09:20:13.986Z,100738.70
2018-11-25T09:22:42.868Z,100748.46
2018-11-25T09:25:14.279Z,100744.17
2018-11-25T09:27:42.984Z,100751.48
2018-11-25T09:30:13.285Z,100751.63
2018-11-25T09:32:42.109Z,100753.22
2018-11-25T09:35:10.812Z,100751.39
2018-11-25T09:37:39.689Z,100755.53
2018-11-25T09:40:25.332Z,100767.30
2018-11-25T09:42:54.021Z,100756.96
2018-11-25T09:45:22.737Z,100763.25
2018-11-25T09:47:51.648Z,100762.30
2018-11-25T09:50:21.599Z,100761.78
2018-11-25T09:52:50.552Z,100768.25
2018-11-25T09:55:20.696Z,100772.91
2018-11-25T09:57:55.898Z,100775.36
2018-11-25T10:00:28.322Z,100776.95
2018-11-25T10:02:57.113Z,100778.19
2018-11-25T10:05:25.948Z,100778.90
2018-11-25T10:07:54.788Z,100775.87
2018-11-25T10:10:24.251Z,100770.13
2018-11-25T10:12:52.945Z,100770.39
2018-11-25T10:15:25.869Z,100767.36
2018-11-25T10:17:59.327Z,100763.48
2018-11-25T10:20:27.276Z,100761.41
2018-11-25T10:22:55.990Z,100753.55
2018-11-25T10:25:24.673Z,100759.80
2018-11-25T10:27:53.632Z,100750.82
2018-11-25T10:30:24.898Z,100749.87
2018-11-25T10:32:55.077Z,100743.47
2018-11-25T10:35:23.794Z,100737.79
2018-11-25T10:37:52.481Z,100730.30
2018-11-25T10:40:22.242Z,100733.55
2018-11-25T10:42:51.028Z,100732.19
2018-11-25T10:45:23.966Z,100728.78
2018-11-25T10:47:52.705Z,100724.91
2018-11-25T10:50:21.965Z,100727.87
2018-11-25T10:52:50.933Z,100723.36
2018-11-25T10:55:20.588Z,100715.64
2018-11-25T10:57:50.700Z,100716.12
2018-11-25T11:00:28.838Z,100715.27
2018-11-25T11:03:02.839Z,100706.33
2018-11-25T11:05:36.966Z,100711.27
2018-11-25T11:08:06.705Z,100708.42
2018-11-25T11:10:35.413Z,100711.02
2018-11-25T11:13:04.417Z,100706.10
2018-11-25T11:15:33.117Z,100707.39
2018-11-25T11:18:01.902Z,100702.37
2018-11-25T11:20:30.853Z,100701.59
2018-11-25T11:22:59.705Z,100699.45
2018-11-25T11:25:28.417Z,100699.81
2018-11-25T11:27:57.256Z,100711.79
2018-11-25T11:30:25.973Z,100713.22
2018-11-25T11:32:54.929Z,100709.97
2018-11-25T11:35:23.640Z,100706.42
2018-11-25T11:37:52.737Z,100705.77
2018-11-25T11:40:21.532Z,100707.72
2018-11-25T11:42:50.276Z,100712.70
2018-11-25T11:45:19.009Z,100704.03
2018-11-25T11:47:47.851Z,100716.45
2018-11-25T11:50:19.104Z,100716.16
2018-11-25T11:52:47.936Z,100720.25
2018-11-25T11:55:17.540Z,100722.53
2018-11-25T11:57:47.153Z,100721.28
2018-11-25T12:00:21.413Z,100726.52
2018-11-25T12:02:50.516Z,100725.91
2018-11-25T12:05:19.657Z,100717.22
2018-11-25T12:08:04.864Z,100721.55
2018-11-25T12:10:33.820Z,100724.54
2018-11-25T12:13:02.561Z,100724.13
2018-11-25T12:15:32.073Z,100724.54
2018-11-25T12:18:00.889Z,100723.77
2018-11-25T12:20:30.974Z,100721.69
2018-11-25T12:23:00.122Z,100726.27
2018-11-25T12:25:28.828Z,100724.91
2018-11-25T12:27:57.634Z,100720.00
2018-11-25T12:30:26.345Z,100718.23
2018-11-25T12:32:55.570Z,100716.56
2018-11-25T12:35:24.330Z,100722.17
2018-11-25T12:37:53.018Z,100719.59
2018-11-25T12:40:22.761Z,100716.56
2018-11-25T12:42:54.529Z,100719.92
2018-11-25T12:45:23.357Z,100719.26
2018-11-25T12:47:52.366Z,100723.61
2018-11-25T12:50:22.262Z,100712.61
2018-11-25T12:52:51.377Z,100707.58
2018-11-25T12:55:21.265Z,100712.91
2018-11-25T12:57:49.993Z,100714.71
2018-11-25T13:00:30.201Z,100721.11
2018-11-25T13:02:59.024Z,100713.31
2018-11-25T13:05:28.045Z,100715.34
2018-11-25T13:07:56.764Z,100720.44
2018-11-25T13:10:25.704Z,100718.70
2018-11-25T13:12:54.410Z,100720.00
2018-11-25T13:15:23.110Z,100714.86
2018-11-25T13:17:51.819Z,100715.00
2018-11-25T13:20:20.600Z,100711.83
2018-11-25T13:22:49.322Z,100710.17
2018-11-25T13:25:18.488Z,100705.03
2018-11-25T13:27:47.404Z,100700.48
2018-11-25T13:30:20.206Z,100695.57
2018-11-25T13:32:48.017Z,100693.83
2018-11-25T13:35:16.757Z,100692.54
2018-11-25T13:37:45.477Z,100692.58
2018-11-25T13:40:15.252Z,100693.31
2018-11-25T13:42:43.960Z,100692.80
2018-11-25T13:45:13.435Z,100696.53
2018-11-25T13:47:42.149Z,100693.69
2018-11-25T13:50:11.785Z,100697.30
2018-11-25T13:52:40.495Z,100689.87
2018-11-25T13:55:14.373Z,100693.23
2018-11-25T13:57:43.085Z,100688.84
2018-11-25T14:00:19.901Z,100694.86
2018-11-25T14:02:53.197Z,100694.72
2018-11-25T14:05:22.001Z,100693.05
2018-11-25T14:07:50.962Z,100691.02
2018-11-25T14:10:22.789Z,100691.36
2018-11-25T14:12:51.509Z,100691.25
2018-11-25T14:15:20.233Z,100690.25
2018-11-25T14:17:48.934Z,100686.08
2018-11-25T14:20:17.644Z,100689.17
2018-11-25T14:22:46.623Z,100683.84
2018-11-25T14:25:16.832Z,100690.83
2018-11-25T14:27:46.442Z,100687.80
2018-11-25T14:30:20.371Z,100686.06
2018-11-25T14:32:49.122Z,100682.12
2018-11-25T14:35:17.970Z,100679.97
2018-11-25T14:37:46.681Z,100683.07
2018-11-25T14:40:16.809Z,100684.09
2018-11-25T14:42:45.649Z,100680.23
2018-11-25T14:45:15.534Z,100680.63
2018-11-25T14:47:44.233Z,100672.47
2018-11-25T14:50:14.558Z,100673.25
2018-11-25T14:52:44.503Z,100668.25
2018-11-25T14:55:13.898Z,100661.42
2018-11-25T14:57:42.629Z,100661.87
2018-11-25T15:00:19.521Z,100655.03
2018-11-25T15:02:55.372Z,100659.42
2018-11-25T15:05:30.753Z,100656.77
2018-11-25T15:07:59.469Z,100658.06
2018-11-25T15:10:28.300Z,100663.60
2018-11-25T15:12:57.316Z,100669.03
2018-11-25T15:15:26.024Z,100664.86
2018-11-25T15:17:54.841Z,100665.74
2018-11-25T15:20:23.554Z,100667.44
2018-11-25T15:22:55.124Z,100672.88
2018-11-25T15:25:26.749Z,100671.88
2018-11-25T15:27:55.490Z,100674.87
2018-11-25T15:30:24.185Z,100675.25
2018-11-25T15:32:52.897Z,100677.83
2018-11-25T15:35:21.918Z,100673.69
2018-11-25T15:37:51.604Z,100669.55
2018-11-25T15:40:27.584Z,100668.33
2018-11-25T15:42:57.218Z,100667.95
2018-11-25T15:45:26.176Z,100672.61
2018-11-25T15:47:58.017Z,100664.11
2018-11-25T15:50:27.937Z,100667.48
2018-11-25T15:52:56.844Z,100659.87
2018-11-25T15:55:25.654Z,100660.31
2018-11-25T15:57:54.382Z,100659.87
2018-11-25T16:00:24.331Z,100659.80
2018-11-25T16:02:53.300Z,100657.62
2018-11-25T16:05:28.430Z,100661.87
2018-11-25T16:07:57.129Z,100658.91
2018-11-25T16:10:25.857Z,100670.33
2018-11-25T16:12:54.609Z,100673.83
2018-11-25T16:15:25.844Z,100668.22
2018-11-25T16:17:54.554Z,100677.13
2018-11-25T16:20:25.452Z,100671.95
2018-11-25T16:23:00.697Z,100663.60
2018-11-25T16:25:39.189Z,100663.56
2018-11-25T16:28:11.177Z,100671.58
2018-11-25T16:30:39.878Z,100668.52
2018-11-25T16:33:08.845Z,100676.54
2018-11-25T16:35:37.840Z,100671.58
2018-11-25T16:38:07.299Z,100675.30
2018-11-25T16:40:37.486Z,100670.13
2018-11-25T16:43:23.070Z,100676.08
2018-11-25T16:45:51.941Z,100670.91
2018-11-25T16:48:20.655Z,100670.02
2018-11-25T16:50:49.373Z,100668.84
2018-11-25T16:53:18.300Z,100668.84
2018-11-25T16:55:47.160Z,100671.05
2018-11-25T16:58:15.868Z,100668.84
2018-11-25T17:00:44.569Z,100669.55
2018-11-25T17:03:13.265Z,100668.25
2018-11-25T17:05:43.765Z,100665.30
2018-11-25T17:08:19.921Z,100669.51
2018-11-25T17:10:48.933Z,100662.89
2018-11-25T17:13:17.699Z,100670.02
2018-11-25T17:15:46.401Z,100671.25
2018-11-25T17:18:15.573Z,100678.41
2018-11-25T17:20:45.836Z,100676.23
2018-11-25T17:23:14.569Z,100673.17
2018-11-25T17:25:43.248Z,100670.29
2018-11-25T17:28:12.060Z,100670.59
2018-11-25T17:30:40.746Z,100670.92
2018-11-25T17:33:09.538Z,100676.50
2018-11-25T17:35:38.600Z,100679.46
2018-11-25T17:38:07.581Z,100674.99
2018-11-25T17:40:36.517Z,100670.67
2018-11-25T17:43:06.385Z,100669.00
2018-11-25T17:45:35.741Z,100669.71
2018-11-25T17:48:04.724Z,100675.52
2018-11-25T17:50:33.720Z,100674.30
2018-11-25T17:53:02.718Z,100675.59
2018-11-25T17:55:32.256Z,100676.51
2018-11-25T17:58:00.961Z,100676.44
2018-11-25T18:00:49.876Z,100679.91
2018-11-25T18:03:22.810Z,100685.93
2018-11-25T18:05:51.516Z,100682.97
2018-11-25T18:08:20.226Z,100683.75
2018-11-25T18:10:48.921Z,100691.77
2018-11-25T18:13:19.470Z,100683.05
2018-11-25T18:15:48.488Z,100689.08
2018-11-25T18:18:23.432Z,100683.31
2018-11-25T18:20:56.243Z,100682.53
2018-11-25T18:23:25.001Z,100685.97
2018-11-25T18:25:53.700Z,100683.56
2018-11-25T18:28:22.728Z,100689.73
2018-11-25T18:30:51.446Z,100685.30
2018-11-25T18:33:20.392Z,100693.50
2018-11-25T18:35:49.377Z,100684.86
2018-11-25T18:38:18.357Z,100675.59
2018-11-25T18:40:47.344Z,100684.13
2018-11-25T18:43:16.336Z,100696.27
2018-11-25T18:45:45.345Z,100692.84
2018-11-25T18:48:15.464Z,100695.50
2018-11-25T18:50:44.544Z,100698.86
2018-11-25T18:53:13.647Z,100692.22
2018-11-25T18:55:41.461Z,100696.50
2018-11-25T18:58:10.200Z,100690.48
2018-11-25T19:00:46.310Z,100693.39
2018-11-25T19:03:15.341Z,100699.23
2018-11-25T19:05:44.350Z,100691.84
2018-11-25T19:08:13.338Z,100699.34
2018-11-25T19:10:42.049Z,100694.65
2018-11-25T19:13:11.017Z,100687.05
2018-11-25T19:15:40.013Z,100689.81
2018-11-25T19:18:09.432Z,100691.88
2018-11-25T19:20:38.284Z,100699.93
2018-11-25T19:23:07.384Z,100696.83
2018-11-25T19:25:36.878Z,100691.29
2018-11-25T19:28:08.020Z,100692.58
2018-11-25T19:30:37.277Z,100681.31
2018-11-25T19:33:08.797Z,100686.11
2018-11-25T19:35:38.501Z,100677.25
2018-11-25T19:38:08.275Z,100678.03
2018-11-25T19:40:38.225Z,100671.75
2018-11-25T19:43:07.953Z,100669.30
2018-11-25T19:45:37.422Z,100676.92
2018-11-25T19:48:06.217Z,100671.75
2018-11-25T19:50:37.134Z,100672.70
2018-11-25T19:53:07.797Z,100673.48
2018-11-25T19:55:37.133Z,100678.88
2018-11-25T19:58:06.456Z,100680.17
2018-11-25T20:00:36.082Z,100673.23
2018-11-25T20:03:05.177Z,100673.96
2018-11-25T20:05:35.209Z,100678.73
2018-11-25T20:08:03.902Z,100673.70
2018-11-25T20:10:33.797Z,100671.12
2018-11-25T20:13:02.517Z,100665.94
2018-11-25T20:15:31.258Z,100669.34
2018-11-25T20:17:59.941Z,100671.63
2018-11-25T20:20:28.862Z,100679.39
2018-11-25T20:22:57.558Z,100682.23
2018-11-25T20:25:26.516Z,100687.67
2018-11-25T20:27:57.243Z,100678.55
2018-11-25T20:30:28.178Z,100682.75
2018-11-25T20:33:02.717Z,100688.37
2018-11-25T20:35:31.416Z,100679.66
2018-11-25T20:38:05.767Z,100685.45
2018-11-25T20:40:34.465Z,100681.98
2018-11-25T20:43:03.166Z,100680.69
2018-11-25T20:45:38.939Z,100679.58
2018-11-25T20:48:06.062Z,100677.84
2018-11-25T20:50:35.211Z,100685.90
2018-11-25T20:53:09.276Z,100696.98
2018-11-25T20:55:37.989Z,100694.84
2018-11-25T20:58:08.048Z,100691.81
2018-11-25T21:00:37.037Z,100694.44
2018-11-25T21:03:08.076Z,100700.79
2018-11-25T21:05:43.452Z,100687.01
2018-11-25T21:08:12.162Z,100683.05
2018-11-25T21:10:42.122Z,100679.50
2018-11-25T21:13:10.862Z,100679.50
2018-11-25T21:15:39.883Z,100680.42
2018-11-25T21:18:08.855Z,100688.19
2018-11-25T21:20:37.597Z,100689.00
2018-11-25T21:23:06.512Z,100683.91
2018-11-25T21:25:36.143Z,100687.34
2018-11-25T21:28:05.249Z,100679.13
2018-11-25T21:30:34.414Z,100680.80
2018-11-25T21:33:03.427Z,100685.45
2018-11-25T21:35:32.438Z,100685.97
2018-11-25T21:38:01.404Z,100685.97
2018-11-25T21:40:30.114Z,100685.38
2018-11-25T21:42:59.033Z,100693.66
2018-11-25T21:45:27.733Z,100687.67
2018-11-25T21:47:56.436Z,100688.96
2018-11-25T21:50:26.356Z,100693.62
2018-11-25T21:52:55.960Z,100689.73
2018-11-25T21:55:25.034Z,100685.38
2018-11-25T21:57:53.725Z,100683.31
2018-11-25T22:00:23.583Z,100695.02
2018-11-25T22:02:52.281Z,100689.84
2018-11-25T22:05:24.790Z,100699.35
2018-11-25T22:07:49.990Z,100690.18
2018-11-25T22:10:19.852Z,100688.04
2018-11-25T22:12:48.744Z,100693.09
2018-11-25T22:15:18.349Z,100692.25
2018-11-25T22:17:47.045Z,100700.53
2018-11-25T22:20:16.346Z,100695.73
2018-11-25T22:22:45.297Z,100707.52
2018-11-25T22:25:14.868Z,100703.05
2018-11-25T22:27:43.698Z,100702.67
2018-11-25T22:30:22.605Z,100702.41
2018-11-25T22:32:51.368Z,100707.38
2018-11-25T22:35:21.947Z,100715.02
2018-11-25T22:37:50.642Z,100716.38
2018-11-25T22:40:19.868Z,100719.27
2018-11-25T22:42:49.237Z,100716.64
2018-11-25T22:45:19.072Z,100721.16
2018-11-25T22:47:47.753Z,100727.77
2018-11-25T22:50:17.965Z,100726.00
2018-11-25T22:52:46.865Z,100733.23
2018-11-25T22:55:20.442Z,100725.55
2018-11-25T22:57:49.212Z,100724.40
2018-11-25T23:00:25.880Z,100717.01
2018-11-25T23:02:54.577Z,100718.19
2018-11-25T23:05:34.925Z,100712.54
2018-11-25T23:08:03.630Z,100717.16
2018-11-25T23:10:32.315Z,100711.20
2018-11-25T23:13:01.040Z,100713.80
2018-11-25T23:15:30.494Z,100711.20
2018-11-25T23:17:59.184Z,100709.91
2018-11-25T23:20:27.878Z,100703.30
2018-11-25T23:22:56.572Z,100697.75
2018-11-25T23:25:25.849Z,100696.45
2018-11-25T23:27:55.135Z,100699.93
2018-11-25T23:30:23.816Z,100693.09
2018-11-25T23:32:52.537Z,100696.05
2018-11-25T23:35:23.770Z,100693.91
2018-11-25T23:37:52.641Z,100685.77
2018-11-25T23:40:21.342Z,100693.09
2018-11-25T23:42:50.220Z,100695.72
2018-11-25T23:45:18.956Z,100696.05
2018-11-25T23:47:47.641Z,100696.45
2018-11-25T23:50:16.356Z,100688.69
2018-11-25T23:52:46.057Z,100688.17
2018-11-25T23:55:15.096Z,100685.58
2018-11-25T23:57:43.969Z,100686.92
